sensor_id;sensor_type;location;lat;lon;timestamp;temperature;humidity
22098;DHT22;11215;51.938;8.464;2023-06-10T00:02:08;24.50;44.40
22098;DHT22;11215;51.938;8.464;2023-06-10T00:04:34;24.40;44.40
22098;DHT22;11215;51.938;8.464;2023-06-10T00:07:03;24.40;44.40
22098;DHT22;11215;51.938;8.464;2023-06-10T00:09:29;24.40;44.40
22098;DHT22;11215;51.938;8.464;2023-06-10T00:11:55;24.40;44.40
22098;DHT22;11215;51.938;8.464;2023-06-10T00:14:21;24.40;44.40
22098;DHT22;11215;51.938;8.464;2023-06-10T00:16:47;24.40;44.40
22098;DHT22;11215;51.938;8.464;2023-06-10T00:19:13;24.30;44.40
22098;DHT22;11215;51.938;8.464;2023-06-10T00:21:39;24.30;44.30
22098;DHT22;11215;51.938;8.464;2023-06-10T00:24:09;24.30;44.40
22098;DHT22;11215;51.938;8.464;2023-06-10T00:26:39;24.30;44.50
22098;DHT22;11215;51.938;8.464;2023-06-10T00:29:05;24.20;45.00
22098;DHT22;11215;51.938;8.464;2023-06-10T00:31:31;24.20;44.40
22098;DHT22;11215;51.938;8.464;2023-06-10T00:33:57;24.20;44.30
22098;DHT22;11215;51.938;8.464;2023-06-10T00:36:24;24.20;44.40
22098;DHT22;11215;51.938;8.464;2023-06-10T00:38:50;24.20;44.40
22098;DHT22;11215;51.938;8.464;2023-06-10T00:41:16;24.20;44.40
22098;DHT22;11215;51.938;8.464;2023-06-10T00:43:42;24.10;44.40
22098;DHT22;11215;51.938;8.464;2023-06-10T00:46:07;24.10;44.30
22098;DHT22;11215;51.938;8.464;2023-06-10T00:48:34;24.10;44.30
22098;DHT22;11215;51.938;8.464;2023-06-10T00:51:00;24.10;44.30
22098;DHT22;11215;51.938;8.464;2023-06-10T00:53:27;24.00;44.10
22098;DHT22;11215;51.938;8.464;2023-06-10T00:55:53;24.00;44.30
22098;DHT22;11215;51.938;8.464;2023-06-10T00:58:19;24.00;44.30
22098;DHT22;11215;51.938;8.464;2023-06-10T01:00:45;24.00;44.30
22098;DHT22;11215;51.938;8.464;2023-06-10T01:03:12;24.00;44.20
22098;DHT22;11215;51.938;8.464;2023-06-10T01:05:38;24.00;44.30
22098;DHT22;11215;51.938;8.464;2023-06-10T01:08:41;24.00;44.40
22098;DHT22;11215;51.938;8.464;2023-06-10T01:11:21;23.90;44.30
22098;DHT22;11215;51.938;8.464;2023-06-10T01:13:48;23.90;44.60
22098;DHT22;11215;51.938;8.464;2023-06-10T01:16:18;23.90;44.50
22098;DHT22;11215;51.938;8.464;2023-06-10T01:18:45;23.90;44.40
22098;DHT22;11215;51.938;8.464;2023-06-10T01:21:22;23.80;44.20
22098;DHT22;11215;51.938;8.464;2023-06-10T01:23:51;23.80;44.40
22098;DHT22;11215;51.938;8.464;2023-06-10T01:26:20;23.70;44.40
22098;DHT22;11215;51.938;8.464;2023-06-10T01:29:08;23.70;44.60
22098;DHT22;11215;51.938;8.464;2023-06-10T01:31:38;23.70;44.80
22098;DHT22;11215;51.938;8.464;2023-06-10T01:34:15;23.70;44.40
22098;DHT22;11215;51.938;8.464;2023-06-10T01:36:45;23.60;44.60
22098;DHT22;11215;51.938;8.464;2023-06-10T01:39:14;23.60;44.60
22098;DHT22;11215;51.938;8.464;2023-06-10T01:41:40;23.50;44.50
22098;DHT22;11215;51.938;8.464;2023-06-10T01:44:06;23.50;44.60
22098;DHT22;11215;51.938;8.464;2023-06-10T01:46:32;23.50;44.80
22098;DHT22;11215;51.938;8.464;2023-06-10T01:48:57;23.50;44.80
22098;DHT22;11215;51.938;8.464;2023-06-10T01:51:23;23.50;44.80
22098;DHT22;11215;51.938;8.464;2023-06-10T01:53:49;23.40;44.80
22098;DHT22;11215;51.938;8.464;2023-06-10T01:56:15;23.40;44.80
22098;DHT22;11215;51.938;8.464;2023-06-10T01:58:44;23.40;44.90
22098;DHT22;11215;51.938;8.464;2023-06-10T02:01:11;23.30;44.90
22098;DHT22;11215;51.938;8.464;2023-06-10T02:03:37;23.30;44.80
22098;DHT22;11215;51.938;8.464;2023-06-10T02:06:03;23.30;44.90
22098;DHT22;11215;51.938;8.464;2023-06-10T02:08:29;23.30;45.00
22098;DHT22;11215;51.938;8.464;2023-06-10T02:10:55;23.20;45.00
22098;DHT22;11215;51.938;8.464;2023-06-10T02:13:21;23.20;45.10
22098;DHT22;11215;51.938;8.464;2023-06-10T02:15:46;23.20;45.10
22098;DHT22;11215;51.938;8.464;2023-06-10T02:18:12;23.10;45.10
22098;DHT22;11215;51.938;8.464;2023-06-10T02:20:38;23.10;45.10
22098;DHT22;11215;51.938;8.464;2023-06-10T02:23:04;23.00;45.00
22098;DHT22;11215;51.938;8.464;2023-06-10T02:25:30;23.00;45.00
22098;DHT22;11215;51.938;8.464;2023-06-10T02:27:56;23.00;45.20
22098;DHT22;11215;51.938;8.464;2023-06-10T02:30:22;22.90;45.10
22098;DHT22;11215;51.938;8.464;2023-06-10T02:32:48;22.90;45.20
22098;DHT22;11215;51.938;8.464;2023-06-10T02:35:14;22.80;45.10
22098;DHT22;11215;51.938;8.464;2023-06-10T02:37:40;22.80;45.30
22098;DHT22;11215;51.938;8.464;2023-06-10T02:40:07;22.70;45.40
22098;DHT22;11215;51.938;8.464;2023-06-10T02:42:34;22.70;45.60
22098;DHT22;11215;51.938;8.464;2023-06-10T02:45:00;22.60;45.60
22098;DHT22;11215;51.938;8.464;2023-06-10T02:47:26;22.60;45.70
22098;DHT22;11215;51.938;8.464;2023-06-10T02:49:52;22.60;45.80
22098;DHT22;11215;51.938;8.464;2023-06-10T02:52:21;22.50;45.80
22098;DHT22;11215;51.938;8.464;2023-06-10T02:54:48;22.50;45.90
22098;DHT22;11215;51.938;8.464;2023-06-10T02:57:14;22.40;45.90
22098;DHT22;11215;51.938;8.464;2023-06-10T02:59:41;22.40;45.90
22098;DHT22;11215;51.938;8.464;2023-06-10T03:02:07;22.30;46.00
22098;DHT22;11215;51.938;8.464;2023-06-10T03:04:33;22.30;46.10
22098;DHT22;11215;51.938;8.464;2023-06-10T03:06:59;22.20;46.10
22098;DHT22;11215;51.938;8.464;2023-06-10T03:09:29;22.20;46.20
22098;DHT22;11215;51.938;8.464;2023-06-10T03:11:55;22.20;46.40
22098;DHT22;11215;51.938;8.464;2023-06-10T03:14:21;22.10;46.40
22098;DHT22;11215;51.938;8.464;2023-06-10T03:16:47;22.10;46.50
22098;DHT22;11215;51.938;8.464;2023-06-10T03:19:13;22.10;46.60
22098;DHT22;11215;51.938;8.464;2023-06-10T03:21:38;22.00;46.60
22098;DHT22;11215;51.938;8.464;2023-06-10T03:24:05;22.00;46.70
22098;DHT22;11215;51.938;8.464;2023-06-10T03:26:31;21.90;46.80
22098;DHT22;11215;51.938;8.464;2023-06-10T03:28:57;21.90;46.90
22098;DHT22;11215;51.938;8.464;2023-06-10T03:31:23;21.90;47.10
22098;DHT22;11215;51.938;8.464;2023-06-10T03:33:50;21.90;47.10
22098;DHT22;11215;51.938;8.464;2023-06-10T03:36:16;21.80;47.40
22098;DHT22;11215;51.938;8.464;2023-06-10T03:38:42;21.80;47.40
22098;DHT22;11215;51.938;8.464;2023-06-10T03:41:08;21.80;47.50
22098;DHT22;11215;51.938;8.464;2023-06-10T03:43:33;21.80;47.60
22098;DHT22;11215;51.938;8.464;2023-06-10T03:45:59;21.80;47.80
22098;DHT22;11215;51.938;8.464;2023-06-10T03:48:25;21.80;47.90
22098;DHT22;11215;51.938;8.464;2023-06-10T03:50:50;21.80;47.90
22098;DHT22;11215;51.938;8.464;2023-06-10T03:53:17;21.80;47.90
22098;DHT22;11215;51.938;8.464;2023-06-10T03:55:43;21.70;47.90
22098;DHT22;11215;51.938;8.464;2023-06-10T03:58:10;21.70;48.00
22098;DHT22;11215;51.938;8.464;2023-06-10T04:00:39;21.70;48.00
22098;DHT22;11215;51.938;8.464;2023-06-10T04:03:08;21.70;48.00
22098;DHT22;11215;51.938;8.464;2023-06-10T04:05:35;21.70;48.20
22098;DHT22;11215;51.938;8.464;2023-06-10T04:08:01;21.70;48.20
22098;DHT22;11215;51.938;8.464;2023-06-10T04:10:27;21.70;48.20
22098;DHT22;11215;51.938;8.464;2023-06-10T04:12:53;21.70;48.20
22098;DHT22;11215;51.938;8.464;2023-06-10T04:15:19;21.60;48.30
22098;DHT22;11215;51.938;8.464;2023-06-10T04:17:45;21.60;48.30
22098;DHT22;11215;51.938;8.464;2023-06-10T04:20:11;21.60;48.40
22098;DHT22;11215;51.938;8.464;2023-06-10T04:22:37;21.60;48.70
22098;DHT22;11215;51.938;8.464;2023-06-10T04:25:03;21.60;48.70
22098;DHT22;11215;51.938;8.464;2023-06-10T04:27:29;21.60;49.00
22098;DHT22;11215;51.938;8.464;2023-06-10T04:29:55;21.60;49.10
22098;DHT22;11215;51.938;8.464;2023-06-10T04:32:21;21.60;49.20
22098;DHT22;11215;51.938;8.464;2023-06-10T04:34:47;21.70;49.50
22098;DHT22;11215;51.938;8.464;2023-06-10T04:37:12;21.70;49.90
22098;DHT22;11215;51.938;8.464;2023-06-10T04:39:38;21.90;50.30
22098;DHT22;11215;51.938;8.464;2023-06-10T04:42:04;22.10;50.40
22098;DHT22;11215;51.938;8.464;2023-06-10T04:44:31;22.30;50.40
22098;DHT22;11215;51.938;8.464;2023-06-10T04:46:57;22.60;50.40
22098;DHT22;11215;51.938;8.464;2023-06-10T04:49:23;22.80;50.30
22098;DHT22;11215;51.938;8.464;2023-06-10T04:51:48;23.00;50.10
22098;DHT22;11215;51.938;8.464;2023-06-10T04:54:15;23.30;50.00
22098;DHT22;11215;51.938;8.464;2023-06-10T04:56:41;23.60;49.40
22098;DHT22;11215;51.938;8.464;2023-06-10T04:59:07;23.80;49.20
22098;DHT22;11215;51.938;8.464;2023-06-10T05:01:32;24.00;48.90
22098;DHT22;11215;51.938;8.464;2023-06-10T05:03:58;24.30;48.70
22098;DHT22;11215;51.938;8.464;2023-06-10T05:06:23;24.60;48.40
22098;DHT22;11215;51.938;8.464;2023-06-10T05:08:49;24.80;48.00
22098;DHT22;11215;51.938;8.464;2023-06-10T05:11:15;25.00;47.80
22098;DHT22;11215;51.938;8.464;2023-06-10T05:13:42;25.30;47.60
22098;DHT22;11215;51.938;8.464;2023-06-10T05:16:09;25.50;47.10
22098;DHT22;11215;51.938;8.464;2023-06-10T05:18:35;25.80;47.20
22098;DHT22;11215;51.938;8.464;2023-06-10T05:21:01;26.00;46.60
22098;DHT22;11215;51.938;8.464;2023-06-10T05:23:27;26.20;45.70
22098;DHT22;11215;51.938;8.464;2023-06-10T05:25:53;26.40;45.10
22098;DHT22;11215;51.938;8.464;2023-06-10T05:28:19;26.60;44.30
22098;DHT22;11215;51.938;8.464;2023-06-10T05:30:46;26.70;44.00
22098;DHT22;11215;51.938;8.464;2023-06-10T05:33:11;26.80;43.90
22098;DHT22;11215;51.938;8.464;2023-06-10T05:35:37;27.00;43.90
22098;DHT22;11215;51.938;8.464;2023-06-10T05:38:03;27.10;43.60
22098;DHT22;11215;51.938;8.464;2023-06-10T05:40:29;27.20;43.30
22098;DHT22;11215;51.938;8.464;2023-06-10T05:42:55;27.30;42.80
22098;DHT22;11215;51.938;8.464;2023-06-10T05:45:21;27.50;42.90
22098;DHT22;11215;51.938;8.464;2023-06-10T05:47:47;27.60;43.00
22098;DHT22;11215;51.938;8.464;2023-06-10T05:50:12;27.80;42.80
22098;DHT22;11215;51.938;8.464;2023-06-10T05:52:38;27.90;42.20
22098;DHT22;11215;51.938;8.464;2023-06-10T05:55:07;28.10;42.00
22098;DHT22;11215;51.938;8.464;2023-06-10T05:57:33;28.30;42.00
22098;DHT22;11215;51.938;8.464;2023-06-10T05:59:59;28.50;41.80
22098;DHT22;11215;51.938;8.464;2023-06-10T06:02:25;28.60;41.40
22098;DHT22;11215;51.938;8.464;2023-06-10T06:04:51;28.80;41.10
22098;DHT22;11215;51.938;8.464;2023-06-10T06:07:17;29.00;40.60
22098;DHT22;11215;51.938;8.464;2023-06-10T06:09:42;29.10;40.00
22098;DHT22;11215;51.938;8.464;2023-06-10T06:12:08;29.20;39.40
22098;DHT22;11215;51.938;8.464;2023-06-10T06:14:37;29.30;39.00
22098;DHT22;11215;51.938;8.464;2023-06-10T06:17:07;29.40;38.60
22098;DHT22;11215;51.938;8.464;2023-06-10T06:19:33;29.40;38.70
22098;DHT22;11215;51.938;8.464;2023-06-10T06:21:59;29.40;38.20
22098;DHT22;11215;51.938;8.464;2023-06-10T06:24:25;29.50;37.90
22098;DHT22;11215;51.938;8.464;2023-06-10T06:26:51;29.50;37.60
22098;DHT22;11215;51.938;8.464;2023-06-10T06:29:17;29.50;37.10
22098;DHT22;11215;51.938;8.464;2023-06-10T06:31:43;29.50;36.50
22098;DHT22;11215;51.938;8.464;2023-06-10T06:34:09;29.40;36.00
22098;DHT22;11215;51.938;8.464;2023-06-10T06:36:35;29.30;35.90
22098;DHT22;11215;51.938;8.464;2023-06-10T06:39:00;29.20;36.00
22098;DHT22;11215;51.938;8.464;2023-06-10T06:41:27;29.10;35.90
22098;DHT22;11215;51.938;8.464;2023-06-10T06:43:54;28.90;35.60
22098;DHT22;11215;51.938;8.464;2023-06-10T06:46:20;28.70;34.90
22098;DHT22;11215;51.938;8.464;2023-06-10T06:48:46;28.60;35.10
22098;DHT22;11215;51.938;8.464;2023-06-10T06:51:13;28.40;34.80
22098;DHT22;11215;51.938;8.464;2023-06-10T06:53:39;28.30;35.10
22098;DHT22;11215;51.938;8.464;2023-06-10T06:56:10;28.10;34.90
22098;DHT22;11215;51.938;8.464;2023-06-10T06:58:36;27.90;35.00
22098;DHT22;11215;51.938;8.464;2023-06-10T07:01:02;27.80;35.10
22098;DHT22;11215;51.938;8.464;2023-06-10T07:03:27;27.70;35.10
22098;DHT22;11215;51.938;8.464;2023-06-10T07:05:53;27.60;34.90
22098;DHT22;11215;51.938;8.464;2023-06-10T07:08:20;27.50;34.90
22098;DHT22;11215;51.938;8.464;2023-06-10T07:10:45;27.40;35.10
22098;DHT22;11215;51.938;8.464;2023-06-10T07:13:11;27.30;35.20
22098;DHT22;11215;51.938;8.464;2023-06-10T07:15:38;27.20;35.20
22098;DHT22;11215;51.938;8.464;2023-06-10T07:18:04;27.10;35.10
22098;DHT22;11215;51.938;8.464;2023-06-10T07:20:30;27.10;35.10
22098;DHT22;11215;51.938;8.464;2023-06-10T07:22:56;27.00;35.20
22098;DHT22;11215;51.938;8.464;2023-06-10T07:25:22;27.00;35.50
22098;DHT22;11215;51.938;8.464;2023-06-10T07:27:48;27.00;35.80
22098;DHT22;11215;51.938;8.464;2023-06-10T07:30:14;26.90;35.50
22098;DHT22;11215;51.938;8.464;2023-06-10T07:32:40;26.90;35.60
22098;DHT22;11215;51.938;8.464;2023-06-10T07:35:09;26.90;35.50
22098;DHT22;11215;51.938;8.464;2023-06-10T07:37:36;26.80;35.60
22098;DHT22;11215;51.938;8.464;2023-06-10T07:40:02;26.90;35.70
22098;DHT22;11215;51.938;8.464;2023-06-10T07:42:28;26.80;35.70
22098;DHT22;11215;51.938;8.464;2023-06-10T07:44:54;26.80;35.60
22098;DHT22;11215;51.938;8.464;2023-06-10T07:47:20;26.80;35.50
22098;DHT22;11215;51.938;8.464;2023-06-10T07:49:45;26.80;35.40
22098;DHT22;11215;51.938;8.464;2023-06-10T07:52:11;26.80;35.20
22098;DHT22;11215;51.938;8.464;2023-06-10T07:54:37;26.80;35.20
22098;DHT22;11215;51.938;8.464;2023-06-10T07:57:03;26.80;35.40
22098;DHT22;11215;51.938;8.464;2023-06-10T07:59:29;26.80;35.50
22098;DHT22;11215;51.938;8.464;2023-06-10T08:01:55;26.80;35.50
22098;DHT22;11215;51.938;8.464;2023-06-10T08:04:20;26.80;35.80
22098;DHT22;11215;51.938;8.464;2023-06-10T08:06:46;26.80;36.10
22098;DHT22;11215;51.938;8.464;2023-06-10T08:09:12;26.80;36.40
22098;DHT22;11215;51.938;8.464;2023-06-10T08:11:38;26.80;36.70
22098;DHT22;11215;51.938;8.464;2023-06-10T08:14:04;26.90;36.70
22098;DHT22;11215;51.938;8.464;2023-06-10T08:16:30;26.90;36.70
22098;DHT22;11215;51.938;8.464;2023-06-10T08:18:55;26.90;36.90
22098;DHT22;11215;51.938;8.464;2023-06-10T08:21:21;27.00;37.30
22098;DHT22;11215;51.938;8.464;2023-06-10T08:23:47;27.00;37.20
22098;DHT22;11215;51.938;8.464;2023-06-10T08:26:13;27.00;37.20
22098;DHT22;11215;51.938;8.464;2023-06-10T08:28:39;27.00;37.10
22098;DHT22;11215;51.938;8.464;2023-06-10T08:31:04;27.10;37.00
22098;DHT22;11215;51.938;8.464;2023-06-10T08:33:30;27.20;37.10
22098;DHT22;11215;51.938;8.464;2023-06-10T08:35:56;27.20;37.30
22098;DHT22;11215;51.938;8.464;2023-06-10T08:38:22;27.20;37.50
22098;DHT22;11215;51.938;8.464;2023-06-10T08:40:48;27.20;37.70
22098;DHT22;11215;51.938;8.464;2023-06-10T08:43:26;27.30;38.40
22098;DHT22;11215;51.938;8.464;2023-06-10T08:45:59;27.30;37.90
22098;DHT22;11215;51.938;8.464;2023-06-10T08:48:29;27.40;37.90
22098;DHT22;11215;51.938;8.464;2023-06-10T08:50:57;27.40;37.90
22098;DHT22;11215;51.938;8.464;2023-06-10T08:53:24;27.50;37.60
22098;DHT22;11215;51.938;8.464;2023-06-10T08:55:51;27.50;37.80
22098;DHT22;11215;51.938;8.464;2023-06-10T08:58:20;27.50;37.80
22098;DHT22;11215;51.938;8.464;2023-06-10T09:00:46;27.60;37.30
22098;DHT22;11215;51.938;8.464;2023-06-10T09:03:13;27.60;37.50
22098;DHT22;11215;51.938;8.464;2023-06-10T09:05:39;27.70;37.60
22098;DHT22;11215;51.938;8.464;2023-06-10T09:08:08;27.70;37.50
22098;DHT22;11215;51.938;8.464;2023-06-10T09:10:34;27.70;37.50
22098;DHT22;11215;51.938;8.464;2023-06-10T09:13:00;27.70;37.30
22098;DHT22;11215;51.938;8.464;2023-06-10T09:15:26;27.80;37.30
22098;DHT22;11215;51.938;8.464;2023-06-10T09:17:52;27.80;37.10
22098;DHT22;11215;51.938;8.464;2023-06-10T09:20:18;27.80;37.30
22098;DHT22;11215;51.938;8.464;2023-06-10T09:22:44;27.80;37.50
22098;DHT22;11215;51.938;8.464;2023-06-10T09:25:12;27.90;37.60
22098;DHT22;11215;51.938;8.464;2023-06-10T09:27:49;27.90;36.90
22098;DHT22;11215;51.938;8.464;2023-06-10T09:30:35;28.00;36.20
22098;DHT22;11215;51.938;8.464;2023-06-10T09:33:03;28.10;36.70
22098;DHT22;11215;51.938;8.464;2023-06-10T09:35:34;28.10;36.50
22098;DHT22;11215;51.938;8.464;2023-06-10T09:38:00;28.10;36.70
22098;DHT22;11215;51.938;8.464;2023-06-10T09:40:28;28.10;36.50
22098;DHT22;11215;51.938;8.464;2023-06-10T09:42:59;28.20;36.60
22098;DHT22;11215;51.938;8.464;2023-06-10T09:45:32;28.20;36.20
22098;DHT22;11215;51.938;8.464;2023-06-10T09:47:58;28.30;36.30
22098;DHT22;11215;51.938;8.464;2023-06-10T09:50:25;28.30;36.40
22098;DHT22;11215;51.938;8.464;2023-06-10T09:52:51;28.40;36.60
22098;DHT22;11215;51.938;8.464;2023-06-10T09:55:17;28.40;36.90
22098;DHT22;11215;51.938;8.464;2023-06-10T09:57:44;28.40;37.10
22098;DHT22;11215;51.938;8.464;2023-06-10T10:00:14;28.50;37.30
22098;DHT22;11215;51.938;8.464;2023-06-10T10:02:47;28.50;37.30
22098;DHT22;11215;51.938;8.464;2023-06-10T10:05:15;28.50;37.30
22098;DHT22;11215;51.938;8.464;2023-06-10T10:07:42;28.60;37.50
22098;DHT22;11215;51.938;8.464;2023-06-10T10:10:08;28.60;37.70
22098;DHT22;11215;51.938;8.464;2023-06-10T10:12:36;28.70;38.00
22098;DHT22;11215;51.938;8.464;2023-06-10T10:15:03;28.70;38.20
22098;DHT22;11215;51.938;8.464;2023-06-10T10:17:32;28.80;38.20
22098;DHT22;11215;51.938;8.464;2023-06-10T10:20:04;28.80;38.30
22098;DHT22;11215;51.938;8.464;2023-06-10T10:22:37;28.90;38.10
22098;DHT22;11215;51.938;8.464;2023-06-10T10:25:12;29.00;38.20
22098;DHT22;11215;51.938;8.464;2023-06-10T10:30:09;29.10;38.10
22098;DHT22;11215;51.938;8.464;2023-06-10T10:33:04;29.10;38.30
22098;DHT22;11215;51.938;8.464;2023-06-10T10:35:32;29.10;38.10
22098;DHT22;11215;51.938;8.464;2023-06-10T10:37:59;29.20;38.10
22098;DHT22;11215;51.938;8.464;2023-06-10T10:40:26;29.20;38.10
22098;DHT22;11215;51.938;8.464;2023-06-10T10:42:56;29.20;38.00
22098;DHT22;11215;51.938;8.464;2023-06-10T10:45:22;29.30;38.10
22098;DHT22;11215;51.938;8.464;2023-06-10T10:47:57;29.30;38.10
22098;DHT22;11215;51.938;8.464;2023-06-10T10:50:24;29.30;38.20
22098;DHT22;11215;51.938;8.464;2023-06-10T10:53:00;29.40;38.30
22098;DHT22;11215;51.938;8.464;2023-06-10T10:55:28;29.40;37.90
22098;DHT22;11215;51.938;8.464;2023-06-10T11:02:52;29.50;38.10
22098;DHT22;11215;51.938;8.464;2023-06-10T11:05:40;29.60;37.90
22098;DHT22;11215;51.938;8.464;2023-06-10T11:08:08;29.70;37.90
22098;DHT22;11215;51.938;8.464;2023-06-10T11:10:42;29.70;37.90
22098;DHT22;11215;51.938;8.464;2023-06-10T11:13:19;29.80;37.50
22098;DHT22;11215;51.938;8.464;2023-06-10T11:15:47;29.80;37.30
22098;DHT22;11215;51.938;8.464;2023-06-10T11:26:14;30.00;36.70
22098;DHT22;11215;51.938;8.464;2023-06-10T11:28:41;30.00;36.90
22098;DHT22;11215;51.938;8.464;2023-06-10T11:31:09;30.00;36.80
22098;DHT22;11215;51.938;8.464;2023-06-10T11:33:44;30.10;36.80
22098;DHT22;11215;51.938;8.464;2023-06-10T11:36:10;30.20;36.70
22098;DHT22;11215;51.938;8.464;2023-06-10T11:38:36;30.20;36.60
22098;DHT22;11215;51.938;8.464;2023-06-10T11:41:02;30.30;36.90
22098;DHT22;11215;51.938;8.464;2023-06-10T11:43:28;30.30;37.50
22098;DHT22;11215;51.938;8.464;2023-06-10T11:45:55;30.30;36.60
22098;DHT22;11215;51.938;8.464;2023-06-10T11:48:21;30.40;36.40
22098;DHT22;11215;51.938;8.464;2023-06-10T11:50:47;30.40;36.50
22098;DHT22;11215;51.938;8.464;2023-06-10T11:53:13;30.50;36.50
22098;DHT22;11215;51.938;8.464;2023-06-10T11:55:47;30.50;36.30
22098;DHT22;11215;51.938;8.464;2023-06-10T11:58:14;30.60;36.50
22098;DHT22;11215;51.938;8.464;2023-06-10T12:00:49;30.60;36.60
22098;DHT22;11215;51.938;8.464;2023-06-10T12:03:16;30.60;36.60
22098;DHT22;11215;51.938;8.464;2023-06-10T12:06:04;30.70;36.70
22098;DHT22;11215;51.938;8.464;2023-06-10T12:08:30;30.80;36.30
22098;DHT22;11215;51.938;8.464;2023-06-10T12:10:57;30.90;36.50
22098;DHT22;11215;51.938;8.464;2023-06-10T12:13:25;31.00;36.20
22098;DHT22;11215;51.938;8.464;2023-06-10T12:15:52;31.00;36.20
22098;DHT22;11215;51.938;8.464;2023-06-10T12:18:22;31.00;36.20
22098;DHT22;11215;51.938;8.464;2023-06-10T12:20:49;31.10;36.00
22098;DHT22;11215;51.938;8.464;2023-06-10T12:23:16;31.10;36.10
22098;DHT22;11215;51.938;8.464;2023-06-10T12:25:53;31.20;36.20
22098;DHT22;11215;51.938;8.464;2023-06-10T12:28:24;31.20;35.90
22098;DHT22;11215;51.938;8.464;2023-06-10T12:30:50;31.20;36.10
22098;DHT22;11215;51.938;8.464;2023-06-10T12:33:19;31.30;36.10
22098;DHT22;11215;51.938;8.464;2023-06-10T12:35:50;31.30;35.90
22098;DHT22;11215;51.938;8.464;2023-06-10T12:38:26;31.40;35.80
22098;DHT22;11215;51.938;8.464;2023-06-10T12:40:53;31.40;36.00
22098;DHT22;11215;51.938;8.464;2023-06-10T12:43:24;31.40;35.90
22098;DHT22;11215;51.938;8.464;2023-06-10T12:45:51;31.50;36.30
22098;DHT22;11215;51.938;8.464;2023-06-10T12:48:22;31.50;36.20
22098;DHT22;11215;51.938;8.464;2023-06-10T12:50:55;31.50;35.50
22098;DHT22;11215;51.938;8.464;2023-06-10T12:53:22;31.50;35.40
22098;DHT22;11215;51.938;8.464;2023-06-10T12:55:49;31.60;35.30
22098;DHT22;11215;51.938;8.464;2023-06-10T12:58:14;31.60;35.50
22098;DHT22;11215;51.938;8.464;2023-06-10T13:00:40;31.70;35.50
22098;DHT22;11215;51.938;8.464;2023-06-10T13:03:08;31.70;35.70
22098;DHT22;11215;51.938;8.464;2023-06-10T13:05:35;31.70;35.90
22098;DHT22;11215;51.938;8.464;2023-06-10T13:08:10;31.80;35.70
22098;DHT22;11215;51.938;8.464;2023-06-10T13:10:36;31.90;35.60
22098;DHT22;11215;51.938;8.464;2023-06-10T13:13:02;31.90;35.60
22098;DHT22;11215;51.938;8.464;2023-06-10T13:15:31;31.90;36.00
22098;DHT22;11215;51.938;8.464;2023-06-10T13:17:57;31.90;36.00
22098;DHT22;11215;51.938;8.464;2023-06-10T13:20:24;31.90;36.20
22098;DHT22;11215;51.938;8.464;2023-06-10T13:22:50;31.90;35.60
22098;DHT22;11215;51.938;8.464;2023-06-10T13:25:15;32.00;35.30
22098;DHT22;11215;51.938;8.464;2023-06-10T13:27:41;32.00;35.40
22098;DHT22;11215;51.938;8.464;2023-06-10T13:30:08;32.00;35.10
22098;DHT22;11215;51.938;8.464;2023-06-10T13:32:37;32.00;34.30
22098;DHT22;11215;51.938;8.464;2023-06-10T13:35:04;32.10;34.10
22098;DHT22;11215;51.938;8.464;2023-06-10T13:37:30;32.10;34.00
22098;DHT22;11215;51.938;8.464;2023-06-10T13:39:55;32.10;34.10
22098;DHT22;11215;51.938;8.464;2023-06-10T13:42:21;32.10;33.90
22098;DHT22;11215;51.938;8.464;2023-06-10T13:44:47;32.20;33.80
22098;DHT22;11215;51.938;8.464;2023-06-10T13:47:14;32.20;33.80
22098;DHT22;11215;51.938;8.464;2023-06-10T13:49:40;32.20;33.80
22098;DHT22;11215;51.938;8.464;2023-06-10T13:52:06;32.20;34.00
22098;DHT22;11215;51.938;8.464;2023-06-10T13:54:32;32.20;34.10
22098;DHT22;11215;51.938;8.464;2023-06-10T13:56:58;32.20;33.80
22098;DHT22;11215;51.938;8.464;2023-06-10T13:59:24;32.30;33.70
22098;DHT22;11215;51.938;8.464;2023-06-10T14:01:50;32.30;33.70
22098;DHT22;11215;51.938;8.464;2023-06-10T14:04:15;32.40;33.90
22098;DHT22;11215;51.938;8.464;2023-06-10T14:06:41;32.40;34.00
22098;DHT22;11215;51.938;8.464;2023-06-10T14:09:07;32.40;33.70
22098;DHT22;11215;51.938;8.464;2023-06-10T14:11:32;32.50;33.40
22098;DHT22;11215;51.938;8.464;2023-06-10T14:13:58;32.50;33.70
22098;DHT22;11215;51.938;8.464;2023-06-10T14:16:26;32.50;33.40
22098;DHT22;11215;51.938;8.464;2023-06-10T14:18:52;32.60;33.60
22098;DHT22;11215;51.938;8.464;2023-06-10T14:21:17;32.60;33.50
22098;DHT22;11215;51.938;8.464;2023-06-10T14:23:43;32.60;33.60
22098;DHT22;11215;51.938;8.464;2023-06-10T14:26:09;32.60;33.70
22098;DHT22;11215;51.938;8.464;2023-06-10T14:28:35;32.60;33.80
22098;DHT22;11215;51.938;8.464;2023-06-10T14:31:01;32.60;33.60
22098;DHT22;11215;51.938;8.464;2023-06-10T14:33:27;32.70;33.80
22098;DHT22;11215;51.938;8.464;2023-06-10T14:35:52;32.70;33.60
22098;DHT22;11215;51.938;8.464;2023-06-10T14:38:18;32.70;33.60
22098;DHT22;11215;51.938;8.464;2023-06-10T14:40:44;32.70;33.60
22098;DHT22;11215;51.938;8.464;2023-06-10T14:43:10;32.80;33.70
22098;DHT22;11215;51.938;8.464;2023-06-10T14:45:39;32.80;33.60
22098;DHT22;11215;51.938;8.464;2023-06-10T14:48:06;32.80;33.40
22098;DHT22;11215;51.938;8.464;2023-06-10T14:50:32;32.90;33.70
22098;DHT22;11215;51.938;8.464;2023-06-10T14:52:58;32.90;33.70
22098;DHT22;11215;51.938;8.464;2023-06-10T14:55:24;32.90;33.50
22098;DHT22;11215;51.938;8.464;2023-06-10T14:57:50;33.00;33.70
22098;DHT22;11215;51.938;8.464;2023-06-10T15:00:16;33.00;33.60
22098;DHT22;11215;51.938;8.464;2023-06-10T15:02:45;33.10;33.70
22098;DHT22;11215;51.938;8.464;2023-06-10T15:05:13;33.10;33.50
22098;DHT22;11215;51.938;8.464;2023-06-10T15:07:40;33.10;33.60
22098;DHT22;11215;51.938;8.464;2023-06-10T15:10:07;33.10;33.50
22098;DHT22;11215;51.938;8.464;2023-06-10T15:12:33;33.10;34.20
22098;DHT22;11215;51.938;8.464;2023-06-10T15:14:58;33.20;33.60
22098;DHT22;11215;51.938;8.464;2023-06-10T15:17:24;33.20;33.30
22098;DHT22;11215;51.938;8.464;2023-06-10T15:19:49;33.20;33.40
22098;DHT22;11215;51.938;8.464;2023-06-10T15:22:15;33.20;33.60
22098;DHT22;11215;51.938;8.464;2023-06-10T15:24:41;33.20;33.30
22098;DHT22;11215;51.938;8.464;2023-06-10T15:27:06;33.20;33.10
22098;DHT22;11215;51.938;8.464;2023-06-10T15:29:32;33.20;33.20
22098;DHT22;11215;51.938;8.464;2023-06-10T15:31:58;33.20;33.20
22098;DHT22;11215;51.938;8.464;2023-06-10T15:34:23;33.20;33.20
22098;DHT22;11215;51.938;8.464;2023-06-10T15:36:49;33.20;33.60
22098;DHT22;11215;51.938;8.464;2023-06-10T15:39:15;33.20;33.60
22098;DHT22;11215;51.938;8.464;2023-06-10T15:41:40;33.20;33.30
22098;DHT22;11215;51.938;8.464;2023-06-10T15:44:06;33.20;33.60
22098;DHT22;11215;51.938;8.464;2023-06-10T15:46:32;33.20;33.60